createdAt,value
2023-07-09T00:02:14.212Z,75.70
2023-07-09T00:04:42.485Z,77.49
2023-07-09T00:07:35.397Z,77.67
2023-07-09T00:10:03.685Z,78.72
2023-07-09T00:12:31.254Z,76.17
2023-07-09T00:14:59.527Z,77.17
2023-07-09T00:17:37.229Z,77.71
2023-07-09T00:20:16.127Z,76.83
2023-07-09T00:22:49.295Z,78.19
2023-07-09T00:25:18.186Z,75.74
2023-07-09T00:27:49.453Z,75.19
2023-07-09T00:30:23.429Z,76.18
2023-07-09T00:32:55.598Z,76.21
2023-07-09T00:35:24.839Z,77.95
2023-07-09T00:37:52.838Z,80.63
2023-07-09T00:40:24.144Z,77.75
2023-07-09T00:42:54.635Z,76.73
2023-07-09T00:45:28.703Z,76.54
2023-07-09T00:48:07.927Z,78.89
2023-07-09T00:50:43.602Z,76.13
2023-07-09T00:53:31.666Z,79.14
2023-07-09T00:56:06.590Z,76.55
2023-07-09T00:58:36.908Z,77.42
2023-07-09T01:01:13.269Z,76.38
2023-07-09T01:03:46.266Z,75.53
2023-07-09T01:06:23.709Z,76.41
2023-07-09T01:08:54.675Z,77.17
2023-07-09T01:11:24.446Z,75.94
2023-07-09T01:14:04.289Z,78.52
2023-07-09T01:16:35.242Z,77.05
2023-07-09T01:19:05.421Z,80.27
2023-07-09T01:21:34.954Z,78.62
2023-07-09T01:24:15.457Z,78.10
2023-07-09T01:26:45.019Z,77.83
2023-07-09T01:29:13.583Z,77.79
2023-07-09T01:31:43.929Z,80.40
2023-07-09T01:34:11.540Z,79.98
2023-07-09T01:36:41.225Z,79.52
2023-07-09T01:39:09.694Z,79.52
2023-07-09T01:41:37.331Z,79.95
2023-07-09T01:44:08.876Z,77.30
2023-07-09T01:46:36.652Z,74.91
2023-07-09T01:49:04.229Z,77.25
2023-07-09T01:51:33.486Z,77.26
2023-07-09T01:54:01.165Z,78.92
2023-07-09T01:56:30.788Z,76.49
2023-07-09T01:59:02.492Z,74.52
2023-07-09T02:01:30.884Z,75.13
2023-07-09T02:03:58.394Z,78.36
2023-07-09T02:06:28.634Z,79.44
2023-07-09T02:08:56.699Z,77.36
2023-07-09T02:11:24.328Z,76.38
2023-07-09T02:13:53.989Z,78.34
2023-07-09T02:16:23.321Z,76.97
2023-07-09T02:18:52.632Z,75.19
2023-07-09T02:21:21.547Z,75.79
2023-07-09T02:23:49.006Z,77.32
2023-07-09T02:26:16.665Z,79.83
2023-07-09T02:28:43.940Z,77.86
2023-07-09T02:31:11.682Z,78.72
2023-07-09T02:33:39.263Z,79.00
2023-07-09T02:36:07.024Z,80.31
2023-07-09T02:38:35.318Z,80.38
2023-07-09T02:41:03.150Z,79.63
2023-07-09T02:43:30.590Z,80.76
2023-07-09T02:45:58.481Z,80.04
2023-07-09T02:48:26.042Z,80.74
2023-07-09T02:50:53.678Z,79.67
2023-07-09T02:53:21.213Z,82.67
2023-07-09T02:55:48.838Z,79.78
2023-07-09T02:58:16.041Z,81.26
2023-07-09T03:00:43.993Z,79.15
2023-07-09T03:03:11.958Z,79.26
2023-07-09T03:05:39.604Z,79.22
2023-07-09T03:08:07.746Z,79.74
2023-07-09T03:10:35.363Z,79.90
2023-07-09T03:13:02.776Z,82.28
2023-07-09T03:15:32.484Z,82.90
2023-07-09T03:18:00.003Z,81.34
2023-07-09T03:20:28.176Z,82.24
2023-07-09T03:22:55.565Z,84.56
2023-07-09T03:25:23.182Z,85.93
2023-07-09T03:27:50.590Z,89.24
2023-07-09T03:30:18.225Z,85.49
2023-07-09T03:32:45.737Z,85.33
2023-07-09T03:35:13.346Z,85.83
2023-07-09T03:37:40.676Z,81.70
2023-07-09T03:40:11.834Z,83.41
2023-07-09T03:42:39.950Z,85.29
2023-07-09T03:45:08.179Z,85.07
2023-07-09T03:47:36.593Z,84.72
2023-07-09T03:50:07.245Z,86.69
2023-07-09T03:52:34.547Z,81.91
2023-07-09T03:55:05.234Z,82.04
2023-07-09T03:57:34.733Z,79.13
2023-07-09T04:00:05.782Z,80.15
2023-07-09T04:02:45.010Z,80.90
2023-07-09T04:05:13.067Z,79.66
2023-07-09T04:07:41.510Z,80.82
2023-07-09T04:10:09.721Z,84.78
2023-07-09T04:12:37.813Z,84.60
2023-07-09T04:15:06.973Z,83.92
2023-07-09T04:17:34.303Z,81.64
2023-07-09T04:20:07.103Z,81.19
2023-07-09T04:22:36.510Z,79.63
2023-07-09T04:25:08.338Z,80.32
2023-07-09T04:27:35.959Z,81.65
2023-07-09T04:30:07.141Z,79.33
2023-07-09T04:32:35.159Z,80.94
2023-07-09T04:35:03.618Z,81.45
2023-07-09T04:37:30.919Z,81.56
2023-07-09T04:40:00.279Z,83.21
2023-07-09T04:42:27.883Z,83.17
2023-07-09T04:44:56.007Z,83.11
2023-07-09T04:47:23.695Z,84.48
2023-07-09T04:49:51.645Z,84.83
2023-07-09T04:52:19.008Z,84.81
2023-07-09T04:54:51.576Z,83.49
2023-07-09T04:57:19.104Z,83.12
2023-07-09T04:59:51.089Z,82.24
2023-07-09T05:02:24.911Z,79.88
2023-07-09T05:04:52.925Z,79.25
2023-07-09T05:07:20.504Z,77.97
2023-07-09T05:09:49.707Z,78.05
2023-07-09T05:12:18.630Z,75.55
2023-07-09T05:14:46.234Z,74.67
2023-07-09T05:17:13.764Z,75.35
2023-07-09T05:19:41.470Z,74.15
2023-07-09T05:22:08.929Z,73.02
2023-07-09T05:24:36.787Z,71.99
2023-07-09T05:27:05.708Z,70.41
2023-07-09T05:29:34.032Z,69.02
2023-07-09T05:32:03.002Z,68.29
2023-07-09T05:34:30.913Z,68.03
2023-07-09T05:37:01.527Z,68.27
2023-07-09T05:39:30.496Z,69.43
2023-07-09T05:41:57.870Z,67.90
2023-07-09T05:44:31.560Z,66.49
2023-07-09T05:46:59.327Z,65.98
2023-07-09T05:49:27.295Z,64.18
2023-07-09T05:51:57.030Z,62.69
2023-07-09T05:54:25.665Z,62.00
2023-07-09T05:56:55.964Z,59.37
2023-07-09T05:59:23.714Z,58.90
2023-07-09T06:01:53.714Z,57.73
2023-07-09T06:04:21.770Z,55.38
2023-07-09T06:06:48.988Z,55.77
2023-07-09T06:09:17.179Z,55.95
2023-07-09T06:11:46.288Z,56.28
2023-07-09T06:14:14.068Z,56.01
2023-07-09T06:16:42.496Z,52.45
2023-07-09T06:19:11.150Z,52.16
2023-07-09T06:21:43.326Z,50.98
2023-07-09T06:24:11.470Z,51.98
2023-07-09T06:26:38.998Z,51.30
2023-07-09T06:29:07.131Z,51.70
2023-07-09T06:31:36.644Z,50.40
2023-07-09T06:34:05.415Z,49.60
2023-07-09T06:36:34.618Z,50.03
2023-07-09T06:39:02.360Z,49.48
2023-07-09T06:41:30.362Z,49.29
2023-07-09T06:43:58.116Z,49.86
2023-07-09T06:46:25.627Z,48.26
2023-07-09T06:48:53.530Z,47.43
2023-07-09T06:51:23.011Z,47.90
2023-07-09T06:53:52.481Z,47.68
2023-07-09T06:56:19.699Z,47.12
2023-07-09T06:58:47.947Z,47.85
2023-07-09T07:01:15.594Z,47.72
2023-07-09T07:03:43.344Z,47.20
2023-07-09T07:06:10.674Z,45.54
2023-07-09T07:08:39.850Z,45.88
2023-07-09T07:11:08.154Z,45.38
2023-07-09T07:13:39.371Z,45.63
2023-07-09T07:16:12.913Z,46.38
2023-07-09T07:18:42.757Z,45.88
2023-07-09T07:21:10.110Z,45.89
2023-07-09T07:23:39.576Z,46.07
2023-07-09T07:26:07.300Z,46.27
2023-07-09T07:28:38.405Z,46.11
2023-07-09T07:31:11.897Z,46.38
2023-07-09T07:33:42.413Z,46.03
2023-07-09T07:38:41.949Z,46.99
2023-07-09T07:41:11.222Z,47.32
2023-07-09T07:43:40.126Z,46.97
2023-07-09T07:46:09.376Z,47.53
2023-07-09T07:48:37.290Z,44.85
2023-07-09T07:51:06.916Z,44.16
2023-07-09T07:53:38.785Z,44.37
2023-07-09T07:56:08.522Z,46.74
2023-07-09T07:58:36.229Z,46.05
2023-07-09T08:01:04.141Z,47.80
2023-07-09T08:03:34.506Z,44.56
2023-07-09T08:06:02.877Z,45.15
2023-07-09T08:08:32.105Z,44.42
2023-07-09T08:11:06.568Z,45.08
2023-07-09T08:13:38.971Z,44.26
2023-07-09T08:16:07.698Z,44.28
2023-07-09T08:18:36.169Z,43.24
2023-07-09T08:21:05.270Z,43.12
2023-07-09T08:23:33.292Z,43.88
2023-07-09T08:26:04.437Z,43.37
2023-07-09T08:28:35.371Z,44.06
2023-07-09T08:31:03.885Z,42.37
2023-07-09T08:33:35.041Z,41.75
2023-07-09T08:36:04.870Z,42.97
2023-07-09T08:38:35.372Z,42.15
2023-07-09T08:41:10.128Z,41.05
2023-07-09T08:44:07.294Z,41.90
2023-07-09T08:47:14.922Z,41.36
2023-07-09T08:49:49.349Z,41.43
2023-07-09T08:52:26.757Z,40.21
2023-07-09T08:54:57.126Z,39.72
2023-07-09T08:57:28.967Z,39.93
2023-07-09T09:00:26.661Z,38.37
2023-07-09T09:03:16.569Z,39.01
2023-07-09T09:05:49.690Z,36.80
2023-07-09T09:08:41.255Z,38.81
2023-07-09T09:11:34.719Z,38.39
2023-07-09T09:14:06.580Z,38.53
2023-07-09T09:16:40.259Z,36.78
2023-07-09T09:19:26.689Z,34.82
2023-07-09T09:22:09.795Z,33.68
2023-07-09T09:24:46.421Z,34.83
2023-07-09T09:27:14.033Z,32.96
2023-07-09T09:29:42.261Z,31.85
2023-07-09T09:32:30.470Z,31.45
2023-07-09T09:34:58.562Z,30.69
2023-07-09T09:37:30.384Z,30.28
2023-07-09T09:40:13.621Z,30.71
2023-07-09T09:42:45.240Z,32.48
2023-07-09T09:45:20.763Z,32.07
2023-07-09T09:47:50.240Z,32.22
2023-07-09T09:50:19.952Z,31.74
2023-07-09T09:52:49.806Z,32.05
2023-07-09T09:55:30.885Z,34.19
2023-07-09T09:57:58.509Z,33.59
2023-07-09T10:00:34.498Z,33.15
2023-07-09T10:03:05.326Z,33.51
2023-07-09T10:05:49.976Z,34.67
2023-07-09T10:08:44.338Z,34.90
2023-07-09T10:11:22.907Z,33.66
2023-07-09T10:13:56.453Z,34.14
2023-07-09T10:16:37.668Z,33.60
2023-07-09T10:19:44.452Z,33.52
2023-07-09T10:22:26.732Z,32.93
2023-07-09T10:24:55.921Z,33.68
2023-07-09T10:27:37.662Z,33.08
2023-07-09T10:30:32.472Z,32.80
2023-07-09T10:33:18.659Z,33.14
2023-07-09T10:35:57.114Z,31.85
2023-07-09T10:38:40.327Z,31.88
2023-07-09T10:44:22.095Z,32.62
2023-07-09T10:47:00.637Z,30.97
2023-07-09T10:49:39.648Z,32.05
2023-07-09T10:52:14.783Z,32.42
2023-07-09T10:54:59.128Z,32.80
2023-07-09T10:57:45.605Z,31.95
2023-07-09T11:00:19.141Z,32.67
2023-07-09T11:02:59.825Z,31.92
2023-07-09T11:05:27.579Z,33.09
2023-07-09T11:08:10.052Z,32.72
2023-07-09T11:10:52.756Z,33.26
2023-07-09T11:13:42.587Z,32.25
2023-07-09T11:16:27.229Z,31.93
2023-07-09T11:19:08.053Z,32.22
2023-07-09T11:22:00.121Z,32.17
2023-07-09T11:25:05.920Z,32.39
2023-07-09T11:27:34.776Z,31.27
2023-07-09T11:30:18.233Z,32.34
2023-07-09T11:33:18.608Z,31.47
2023-07-09T11:35:56.080Z,31.22
2023-07-09T11:38:25.974Z,29.65
2023-07-09T11:40:56.689Z,31.38
2023-07-09T11:43:35.438Z,29.48
2023-07-09T11:46:16.262Z,30.35
2023-07-09T11:48:45.206Z,29.33
2023-07-09T11:51:19.523Z,30.42
2023-07-09T11:53:50.872Z,31.05
2023-07-09T11:56:25.270Z,31.56
2023-07-09T11:58:56.964Z,30.62
2023-07-09T12:01:33.206Z,31.68
2023-07-09T12:04:01.353Z,31.30
2023-07-09T12:06:33.117Z,30.62
2023-07-09T12:09:01.749Z,31.39
2023-07-09T12:11:35.930Z,30.87
2023-07-09T12:14:12.927Z,30.79
2023-07-09T12:16:49.808Z,30.53
2023-07-09T12:19:23.876Z,29.82
2023-07-09T12:21:58.148Z,29.76
2023-07-09T12:24:28.553Z,29.24
2023-07-09T12:27:00.038Z,32.54
2023-07-09T12:29:32.778Z,32.28
2023-07-09T12:32:11.473Z,31.75
2023-07-09T12:34:39.820Z,30.17
2023-07-09T12:37:15.136Z,30.16
2023-07-09T12:39:42.615Z,30.19
2023-07-09T12:42:33.135Z,30.75
2023-07-09T12:45:01.369Z,29.92
2023-07-09T12:47:29.455Z,29.52
2023-07-09T12:50:40.469Z,29.92
2023-07-09T12:53:22.532Z,29.21
2023-07-09T12:55:52.242Z,30.08
2023-07-09T12:58:30.817Z,29.95
2023-07-09T13:01:06.185Z,28.11
2023-07-09T13:03:36.343Z,29.20
2023-07-09T13:06:10.132Z,28.85
2023-07-09T13:08:45.526Z,28.95
2023-07-09T13:11:22.746Z,29.28
2023-07-09T13:13:59.546Z,30.58
2023-07-09T13:16:29.811Z,30.95
2023-07-09T13:18:58.502Z,29.16
2023-07-09T13:21:26.399Z,29.88
2023-07-09T13:23:55.226Z,29.54
2023-07-09T13:26:22.913Z,29.02
2023-07-09T13:28:52.408Z,29.50
2023-07-09T13:31:22.221Z,30.05
2023-07-09T13:33:59.151Z,29.69
2023-07-09T13:36:29.589Z,29.85
2023-07-09T13:38:57.353Z,30.21
2023-07-09T13:41:27.019Z,30.06
2023-07-09T13:43:58.063Z,29.83
2023-07-09T13:46:27.518Z,31.10
2023-07-09T13:48:54.879Z,28.88
2023-07-09T13:51:24.956Z,29.83
2023-07-09T13:54:00.530Z,29.41
2023-07-09T13:56:28.501Z,29.91
2023-07-09T13:58:56.094Z,29.11
2023-07-09T14:01:25.096Z,30.07
2023-07-09T14:03:59.902Z,30.10
2023-07-09T14:06:28.133Z,30.51
2023-07-09T14:08:57.323Z,31.43
2023-07-09T14:11:26.744Z,30.09
2023-07-09T14:13:55.129Z,32.15
2023-07-09T14:16:23.324Z,32.15
2023-07-09T14:18:52.076Z,29.98
2023-07-09T14:21:26.722Z,30.51
2023-07-09T14:23:55.419Z,30.84
2023-07-09T14:26:23.475Z,31.61
2023-07-09T14:28:53.531Z,30.75
2023-07-09T14:31:26.869Z,31.08
2023-07-09T14:33:56.819Z,30.96
2023-07-09T14:36:24.208Z,30.97
2023-07-09T14:38:52.448Z,32.88
2023-07-09T14:41:25.842Z,31.50
2023-07-09T14:43:57.563Z,31.74
2023-07-09T14:46:26.695Z,30.82
2023-07-09T14:48:54.247Z,31.21
2023-07-09T14:51:21.699Z,31.56
2023-07-09T14:53:49.666Z,31.46
2023-07-09T14:56:16.954Z,32.38
2023-07-09T14:58:44.657Z,32.10
2023-07-09T15:01:16.438Z,30.75
2023-07-09T15:03:45.587Z,31.96
2023-07-09T15:06:15.606Z,30.42
2023-07-09T15:08:49.866Z,31.05
2023-07-09T15:11:18.733Z,31.58
2023-07-09T15:13:48.158Z,29.91
2023-07-09T15:16:15.553Z,31.22
2023-07-09T15:18:43.277Z,31.29
2023-07-09T15:21:29.717Z,32.12
2023-07-09T15:24:23.348Z,31.45
2023-07-09T15:26:58.171Z,31.50
2023-07-09T15:29:26.594Z,32.24
2023-07-09T15:31:56.688Z,33.31
2023-07-09T15:34:25.558Z,33.56
2023-07-09T15:36:53.761Z,33.88
2023-07-09T15:39:21.910Z,33.23
2023-07-09T15:41:50.169Z,33.26
2023-07-09T15:44:21.106Z,31.80
2023-07-09T15:46:56.718Z,32.28
2023-07-09T15:49:24.636Z,32.26
2023-07-09T15:51:52.436Z,33.13
2023-07-09T15:54:23.046Z,33.26
2023-07-09T15:56:52.907Z,33.11
2023-07-09T15:59:26.785Z,34.36
2023-07-09T16:01:54.979Z,33.19
2023-07-09T16:04:24.946Z,32.90
2023-07-09T16:06:54.896Z,34.01
2023-07-09T16:09:22.523Z,34.07
2023-07-09T16:11:53.176Z,34.56
2023-07-09T16:14:37.284Z,35.13
2023-07-09T16:17:10.595Z,34.84
2023-07-09T16:19:38.166Z,34.38
2023-07-09T16:22:08.759Z,35.57
2023-07-09T16:24:41.295Z,34.93
2023-07-09T16:27:16.146Z,34.84
2023-07-09T16:29:45.233Z,35.36
2023-07-09T16:32:16.503Z,35.35
2023-07-09T16:34:44.032Z,35.42
2023-07-09T16:37:21.376Z,35.26
2023-07-09T16:39:49.913Z,35.95
2023-07-09T16:42:17.941Z,35.98
2023-07-09T16:44:49.252Z,36.27
2023-07-09T16:47:19.976Z,36.09
2023-07-09T16:49:48.394Z,36.36
2023-07-09T16:52:18.811Z,35.67
2023-07-09T16:54:50.517Z,35.96
2023-07-09T16:57:22.089Z,36.02
2023-07-09T16:59:51.438Z,36.13
2023-07-09T17:02:31.893Z,36.46
2023-07-09T17:05:08.020Z,36.73
2023-07-09T17:07:36.185Z,37.34
2023-07-09T17:10:05.601Z,37.71
2023-07-09T17:12:33.995Z,36.96
2023-07-09T17:15:08.457Z,37.95
2023-07-09T17:17:36.096Z,38.16
2023-07-09T17:20:06.341Z,37.42
2023-07-09T17:22:36.739Z,37.40
2023-07-09T17:25:35.790Z,37.96
2023-07-09T17:28:22.088Z,37.61
2023-07-09T17:30:51.787Z,37.47
2023-07-09T17:33:20.330Z,38.36
2023-07-09T17:35:50.953Z,38.50
2023-07-09T17:38:33.598Z,38.86
2023-07-09T17:41:01.659Z,38.67
2023-07-09T17:43:32.881Z,39.14
2023-07-09T17:46:00.355Z,39.68
2023-07-09T17:48:31.375Z,40.21
2023-07-09T17:50:59.435Z,39.89
2023-07-09T17:53:30.015Z,41.49
2023-07-09T17:55:58.150Z,40.89
2023-07-09T17:58:38.688Z,42.93
2023-07-09T18:01:08.412Z,41.01
2023-07-09T18:03:36.740Z,41.02
2023-07-09T18:06:05.085Z,41.21
2023-07-09T18:08:34.908Z,40.72
2023-07-09T18:11:02.466Z,40.93
2023-07-09T18:13:31.535Z,40.84
2023-07-09T18:15:59.731Z,41.06
2023-07-09T18:18:28.309Z,41.57
2023-07-09T18:20:55.988Z,41.58
2023-07-09T18:23:26.720Z,42.46
2023-07-09T18:25:54.544Z,42.00
2023-07-09T18:28:36.373Z,42.55
2023-07-09T18:31:16.273Z,42.48
2023-07-09T18:33:46.311Z,44.13
2023-07-09T18:36:13.912Z,44.05
2023-07-09T18:38:42.854Z,44.58
2023-07-09T18:41:17.593Z,45.53
2023-07-09T18:43:50.631Z,44.84
2023-07-09T18:46:18.405Z,45.35
2023-07-09T18:48:47.015Z,45.94
2023-07-09T18:51:15.120Z,46.42
2023-07-09T18:53:44.474Z,46.70
2023-07-09T18:56:13.613Z,47.30
2023-07-09T18:58:42.505Z,47.75
2023-07-09T19:01:26.190Z,48.06
2023-07-09T19:03:57.671Z,48.56
2023-07-09T19:06:27.848Z,49.25
2023-07-09T19:08:55.673Z,50.37
2023-07-09T19:11:23.570Z,50.04
2023-07-09T19:13:51.196Z,50.42
2023-07-09T19:16:28.797Z,51.27
2023-07-09T19:18:57.312Z,50.98
2023-07-09T19:21:24.899Z,51.89
2023-07-09T19:23:53.774Z,51.81
2023-07-09T19:26:25.448Z,52.19
2023-07-09T19:28:53.549Z,52.68
2023-07-09T19:31:20.942Z,52.42
2023-07-09T19:33:51.657Z,52.59
2023-07-09T19:36:27.731Z,53.08
2023-07-09T19:38:58.220Z,53.23
2023-07-09T19:41:28.034Z,53.78
2023-07-09T19:43:59.801Z,53.39
2023-07-09T19:46:29.770Z,53.79
2023-07-09T19:48:57.920Z,54.40
2023-07-09T19:51:26.773Z,54.63
2023-07-09T19:54:00.565Z,54.30
2023-07-09T19:56:28.016Z,54.83
2023-07-09T19:58:58.374Z,54.92
2023-07-09T20:01:27.088Z,55.50
2023-07-09T20:03:59.217Z,55.06
2023-07-09T20:06:28.189Z,55.29
2023-07-09T20:08:58.056Z,55.09
2023-07-09T20:11:28.648Z,56.01
2023-07-09T20:13:56.511Z,54.95
2023-07-09T20:16:29.975Z,55.89
2023-07-09T20:19:00.420Z,55.55
2023-07-09T20:21:28.624Z,55.02
2023-07-09T20:23:57.168Z,55.14
2023-07-09T20:26:24.539Z,55.29
2023-07-09T20:28:54.210Z,55.33
2023-07-09T20:31:26.558Z,55.88
2023-07-09T20:34:02.350Z,55.79
2023-07-09T20:36:30.058Z,56.32
2023-07-09T20:38:59.328Z,56.32
2023-07-09T20:41:29.391Z,56.21
2023-07-09T20:43:57.858Z,55.90
2023-07-09T20:46:25.961Z,56.86
2023-07-09T20:48:53.645Z,56.37
2023-07-09T20:51:20.836Z,57.73
2023-07-09T20:53:48.695Z,57.44
2023-07-09T20:56:16.144Z,56.56
2023-07-09T20:58:44.007Z,58.16
2023-07-09T21:01:11.726Z,56.99
2023-07-09T21:03:42.278Z,58.16
2023-07-09T21:06:18.125Z,56.92
2023-07-09T21:08:45.855Z,57.60
2023-07-09T21:11:13.069Z,57.52
2023-07-09T21:13:40.805Z,57.64
2023-07-09T21:16:20.029Z,57.61
2023-07-09T21:18:47.960Z,57.62
2023-07-09T21:21:16.141Z,57.86
2023-07-09T21:23:43.776Z,58.04
2023-07-09T21:26:17.040Z,57.99
2023-07-09T21:28:44.653Z,58.23
2023-07-09T21:31:20.292Z,58.24
2023-07-09T21:33:50.450Z,58.24
2023-07-09T21:36:17.830Z,58.58
2023-07-09T21:38:45.491Z,58.37
2023-07-09T21:41:12.809Z,58.16
2023-07-09T21:43:42.715Z,58.93
2023-07-09T21:46:25.695Z,59.43
2023-07-09T21:48:53.368Z,59.77
2023-07-09T21:51:21.070Z,57.87
2023-07-09T21:54:11.430Z,58.71
2023-07-09T21:56:36.878Z,59.50
2023-07-09T21:59:04.500Z,58.35
2023-07-09T22:01:32.354Z,58.52
2023-07-09T22:04:00.981Z,58.48
2023-07-09T22:06:28.483Z,58.31
2023-07-09T22:08:56.202Z,58.16
2023-07-09T22:11:28.232Z,58.31
2023-07-09T22:13:57.318Z,58.18
2023-07-09T22:16:27.582Z,58.46
2023-07-09T22:18:56.065Z,58.54
2023-07-09T22:21:23.404Z,58.69
2023-07-09T22:23:55.571Z,59.45
2023-07-09T22:26:23.033Z,59.24
2023-07-09T22:28:51.749Z,59.22
2023-07-09T22:31:19.135Z,59.29
2023-07-09T22:33:47.408Z,61.21
2023-07-09T22:36:14.715Z,58.48
2023-07-09T22:38:44.480Z,58.98
2023-07-09T22:41:12.766Z,58.78
2023-07-09T22:43:40.426Z,58.97
2023-07-09T22:46:20.836Z,59.25
2023-07-09T22:48:48.648Z,59.34
2023-07-09T22:51:17.961Z,59.49
2023-07-09T22:53:45.559Z,60.26
2023-07-09T22:56:13.259Z,61.13
2023-07-09T22:58:43.954Z,60.19
2023-07-09T23:01:21.723Z,59.62
2023-07-09T23:03:50.680Z,59.62
2023-07-09T23:06:23.216Z,59.74
2023-07-09T23:08:58.010Z,60.34
2023-07-09T23:11:34.069Z,61.11
2023-07-09T23:14:03.950Z,60.07
2023-07-09T23:16:32.732Z,61.24
2023-07-09T23:19:17.207Z,59.51
2023-07-09T23:21:44.537Z,59.73
2023-07-09T23:24:12.235Z,59.48
2023-07-09T23:26:47.819Z,59.33
2023-07-09T23:29:17.129Z,58.95
2023-07-09T23:31:47.441Z,58.66
2023-07-09T23:34:18.192Z,59.22
2023-07-09T23:36:45.880Z,59.10
2023-07-09T23:39:14.363Z,58.98
2023-07-09T23:41:46.469Z,58.92
2023-07-09T23:44:23.552Z,59.17
2023-07-09T23:46:53.244Z,58.25
2023-07-09T23:49:25.533Z,58.34
2023-07-09T23:51:53.506Z,59.44
2023-07-09T23:54:21.061Z,57.51
2023-07-09T23:56:51.255Z,59.13
2023-07-09T23:59:25.968Z,58.64
